createdAt,value
2022-11-09T00:04:53.834Z,15.16
2022-11-09T00:09:55.398Z,15.06
2022-11-09T00:14:56.968Z,14.94
2022-11-09T00:19:58.465Z,14.81
2022-11-09T00:25:00.026Z,14.82
2022-11-09T00:30:01.506Z,14.83
2022-11-09T00:35:03.541Z,14.78
2022-11-09T00:40:05.581Z,14.76
2022-11-09T00:45:07.619Z,14.75
2022-11-09T00:50:09.447Z,14.80
2022-11-09T00:55:11.679Z,14.67
2022-11-09T01:00:13.600Z,14.66
2022-11-09T01:05:15.265Z,14.67
2022-11-09T01:10:16.894Z,14.64
2022-11-09T01:15:18.597Z,14.67
2022-11-09T01:20:20.483Z,14.75
2022-11-09T01:25:21.988Z,14.77
2022-11-09T01:30:23.514Z,14.89
2022-11-09T01:35:25.064Z,15.00
2022-11-09T01:40:28.254Z,15.28
2022-11-09T01:45:30.988Z,15.50
2022-11-09T01:50:46.228Z,15.50
2022-11-09T01:55:52.050Z,15.28
2022-11-09T02:00:56.777Z,15.21
2022-11-09T02:06:01.332Z,15.16
2022-11-09T02:11:06.046Z,15.12
2022-11-09T02:16:09.463Z,15.20
2022-11-09T02:21:12.034Z,15.08
2022-11-09T02:26:22.186Z,15.05
2022-11-09T02:31:27.890Z,14.93
2022-11-09T02:36:29.526Z,14.78
2022-11-09T02:41:32.434Z,14.67
2022-11-09T02:46:36.370Z,14.72
2022-11-09T02:51:38.520Z,14.48
2022-11-09T02:56:40.168Z,14.29
2022-11-09T03:01:43.612Z,14.41
2022-11-09T03:06:45.979Z,14.56
2022-11-09T03:11:50.894Z,14.38
2022-11-09T03:16:52.518Z,14.23
2022-11-09T03:21:54.472Z,14.34
2022-11-09T03:26:58.416Z,14.49
2022-11-09T03:32:00.387Z,14.60
2022-11-09T03:37:02.003Z,14.57
2022-11-09T03:42:04.470Z,14.76
2022-11-09T03:47:06.765Z,14.72
2022-11-09T03:52:08.333Z,14.67
2022-11-09T03:57:09.930Z,14.81
2022-11-09T04:02:11.527Z,14.87
2022-11-09T04:07:13.204Z,14.78
2022-11-09T04:12:14.810Z,14.79
2022-11-09T04:17:16.561Z,14.94
2022-11-09T04:22:18.085Z,15.00
2022-11-09T04:27:19.878Z,14.95
2022-11-09T04:32:21.467Z,15.00
2022-11-09T04:37:22.976Z,15.22
2022-11-09T04:42:24.639Z,15.19
2022-11-09T04:47:27.347Z,15.29
2022-11-09T04:52:28.947Z,15.42
2022-11-09T04:57:30.461Z,15.54
2022-11-09T05:02:32.215Z,15.61
2022-11-09T05:07:33.752Z,15.57
2022-11-09T05:12:35.383Z,15.46
2022-11-09T05:17:36.911Z,15.43
2022-11-09T05:22:41.808Z,15.31
2022-11-09T05:27:43.372Z,15.09
2022-11-09T05:32:44.951Z,14.91
2022-11-09T05:37:47.934Z,14.90
2022-11-09T05:42:49.572Z,14.75
2022-11-09T05:47:51.234Z,14.46
2022-11-09T05:52:52.914Z,14.24
2022-11-09T05:57:55.363Z,14.11
2022-11-09T06:03:14.721Z,14.57
2022-11-09T06:08:16.238Z,15.02
2022-11-09T06:13:18.017Z,14.97
2022-11-09T06:18:19.818Z,15.19
2022-11-09T06:23:22.438Z,15.16
2022-11-09T06:28:24.186Z,14.71
2022-11-09T06:33:25.989Z,14.36
2022-11-09T06:38:28.100Z,14.12
2022-11-09T06:43:29.701Z,13.93
2022-11-09T06:48:31.403Z,13.90
2022-11-09T06:53:34.362Z,13.87
2022-11-09T06:58:37.021Z,13.84
2022-11-09T07:03:39.088Z,13.73
2022-11-09T07:08:40.813Z,13.62
2022-11-09T07:13:42.369Z,13.66
2022-11-09T07:18:46.703Z,13.66
2022-11-09T07:23:49.716Z,13.52
2022-11-09T07:28:51.259Z,13.50
2022-11-09T07:33:52.758Z,13.64
2022-11-09T07:38:54.313Z,13.86
2022-11-09T07:43:55.887Z,14.11
2022-11-09T07:48:57.444Z,14.44
2022-11-09T07:53:58.932Z,14.92
2022-11-09T07:59:00.577Z,15.44
2022-11-09T08:04:02.119Z,16.45
2022-11-09T08:09:04.662Z,17.00
2022-11-09T08:14:06.276Z,17.53
2022-11-09T08:19:07.832Z,17.42
2022-11-09T08:24:09.882Z,17.33
2022-11-09T08:29:11.473Z,17.27
2022-11-09T08:34:13.492Z,17.32
2022-11-09T08:39:15.101Z,17.51
2022-11-09T08:44:17.116Z,17.46
2022-11-09T08:49:18.715Z,17.49
2022-11-09T08:54:20.281Z,17.76
2022-11-09T08:59:21.851Z,17.41
2022-11-09T09:04:26.425Z,17.30
2022-11-09T09:09:27.936Z,17.56
2022-11-09T09:14:29.482Z,17.72
2022-11-09T09:19:31.136Z,17.49
2022-11-09T09:24:32.741Z,17.16
2022-11-09T09:29:34.332Z,17.66
2022-11-09T09:34:35.952Z,17.75
2022-11-09T09:39:37.556Z,17.84
2022-11-09T09:45:04.145Z,17.73
2022-11-09T09:50:12.416Z,17.72
2022-11-09T09:55:37.349Z,17.87
2022-11-09T10:00:41.378Z,18.09
2022-11-09T10:06:17.209Z,17.55
2022-11-09T10:11:44.456Z,17.26
2022-11-09T10:16:56.332Z,17.41
2022-11-09T10:22:22.303Z,17.60
2022-11-09T10:27:37.621Z,17.49
2022-11-09T10:32:40.025Z,17.48
2022-11-09T10:37:47.936Z,17.50
2022-11-09T10:42:53.433Z,17.75
2022-11-09T10:48:14.225Z,18.17
2022-11-09T10:53:34.324Z,17.42
2022-11-09T10:58:54.447Z,17.14
2022-11-09T11:04:24.438Z,17.36
2022-11-09T11:09:44.506Z,17.22
2022-11-09T11:15:25.331Z,17.56
2022-11-09T11:20:45.670Z,18.15
2022-11-09T11:26:05.546Z,17.93
2022-11-09T11:31:25.480Z,17.80
2022-11-09T11:36:55.395Z,17.66
2022-11-09T11:42:18.485Z,17.65
2022-11-09T11:47:44.491Z,17.43
2022-11-09T11:53:20.441Z,17.82
2022-11-09T11:59:12.829Z,17.55
2022-11-09T12:04:54.600Z,17.73
2022-11-09T12:10:59.848Z,18.35
2022-11-09T12:16:25.068Z,18.12
2022-11-09T12:22:05.405Z,18.14
2022-11-09T12:28:03.151Z,17.93
2022-11-09T12:33:37.339Z,18.26
2022-11-09T12:39:06.742Z,17.75
2022-11-09T12:44:46.780Z,17.48
2022-11-09T12:50:14.387Z,17.38
2022-11-09T12:55:44.564Z,17.60
2022-11-09T13:01:07.433Z,17.50
2022-11-09T13:06:29.624Z,17.50
2022-11-09T13:11:52.547Z,17.75
2022-11-09T13:17:24.740Z,17.76
2022-11-09T13:22:44.595Z,17.91
2022-11-09T13:28:30.087Z,17.73
2022-11-09T13:33:49.972Z,17.92
2022-11-09T13:39:29.530Z,18.38
2022-11-09T13:44:50.010Z,18.77
2022-11-09T13:50:24.529Z,18.23
2022-11-09T13:55:44.806Z,17.84
2022-11-09T14:01:04.841Z,17.87
2022-11-09T14:06:25.871Z,18.28
2022-11-09T14:12:15.957Z,17.94
2022-11-09T14:17:41.920Z,17.59
2022-11-09T14:23:02.538Z,17.62
2022-11-09T14:28:28.613Z,17.65
2022-11-09T14:33:59.393Z,17.53
2022-11-09T14:39:27.160Z,17.35
2022-11-09T14:44:48.395Z,17.45
2022-11-09T14:50:16.654Z,17.39
2022-11-09T14:55:38.642Z,17.21
2022-11-09T15:01:17.271Z,17.35
2022-11-09T15:06:52.896Z,17.50
2022-11-09T15:12:14.945Z,17.31
2022-11-09T15:17:37.221Z,17.17
2022-11-09T15:23:04.397Z,17.13
2022-11-09T15:28:27.156Z,16.84
2022-11-09T15:33:51.181Z,16.73
2022-11-09T15:39:19.990Z,16.73
2022-11-09T15:44:40.303Z,16.60
2022-11-09T15:50:02.352Z,16.39
2022-11-09T15:55:23.169Z,16.33
2022-11-09T16:00:43.992Z,16.37
2022-11-09T16:06:04.162Z,16.25
2022-11-09T16:11:24.295Z,16.06
2022-11-09T16:16:44.176Z,16.03
2022-11-09T16:22:04.159Z,15.89
2022-11-09T16:33:05.160Z,15.49
2022-11-09T16:38:25.163Z,15.14
2022-11-09T16:43:48.376Z,15.03
2022-11-09T16:49:09.116Z,15.09
2022-11-09T16:54:28.936Z,14.98
2022-11-09T16:59:48.943Z,14.80
2022-11-09T17:05:08.987Z,14.42
2022-11-09T17:10:31.954Z,14.08
2022-11-09T17:15:52.222Z,13.84
2022-11-09T17:21:13.220Z,13.51
2022-11-09T17:26:33.377Z,13.32
2022-11-09T17:31:53.426Z,13.01
2022-11-09T17:37:13.671Z,12.84
2022-11-09T17:42:34.741Z,12.95
2022-11-09T17:47:54.789Z,12.74
2022-11-09T17:53:14.805Z,12.55
2022-11-09T17:58:35.793Z,12.67
2022-11-09T18:03:56.093Z,13.30
2022-11-09T18:14:55.919Z,14.12
2022-11-09T18:20:16.309Z,14.15
2022-11-09T18:25:36.640Z,14.10
2022-11-09T18:31:01.634Z,14.27
2022-11-09T18:36:21.563Z,14.19
2022-11-09T18:41:44.422Z,14.00
2022-11-09T18:47:05.873Z,13.86
2022-11-09T18:52:25.944Z,13.74
2022-11-09T18:57:45.779Z,13.67
2022-11-09T19:03:06.049Z,13.63
2022-11-09T19:08:26.052Z,13.66
2022-11-09T19:13:46.250Z,13.56
2022-11-09T19:19:06.443Z,13.43
2022-11-09T19:24:27.202Z,13.11
2022-11-09T19:29:47.290Z,12.93
2022-11-09T19:35:07.806Z,12.81
2022-11-09T19:40:27.820Z,12.79
2022-11-09T19:45:49.176Z,12.51
2022-11-09T19:51:09.441Z,12.38
2022-11-09T19:56:32.194Z,12.03
2022-11-09T20:01:52.367Z,11.76
2022-11-09T20:07:12.445Z,11.51
2022-11-09T20:12:32.635Z,11.46
2022-11-09T20:17:52.590Z,11.55
2022-11-09T20:23:13.261Z,11.98
2022-11-09T20:28:35.606Z,12.30
2022-11-09T20:33:56.643Z,12.35
2022-11-09T20:39:16.635Z,12.46
2022-11-09T20:44:37.489Z,12.43
2022-11-09T20:49:57.746Z,12.43
2022-11-09T20:55:17.819Z,12.41
2022-11-09T21:00:37.662Z,12.50
2022-11-09T21:05:59.385Z,12.51
2022-11-09T21:11:20.204Z,12.63
2022-11-09T21:16:40.200Z,12.78
2022-11-09T21:22:00.363Z,12.73
2022-11-09T21:27:20.368Z,12.84
2022-11-09T21:32:40.634Z,12.47
2022-11-09T21:38:00.828Z,12.23
2022-11-09T21:43:21.100Z,12.12
2022-11-09T21:48:41.331Z,12.15
2022-11-09T21:54:01.310Z,12.23
2022-11-09T21:59:22.133Z,12.24
2022-11-09T22:04:42.465Z,12.24
2022-11-09T22:10:11.542Z,12.09
2022-11-09T22:15:32.615Z,11.94
2022-11-09T22:20:52.835Z,12.04
2022-11-09T22:26:12.849Z,12.08
2022-11-09T22:31:33.057Z,12.11
2022-11-09T22:36:53.449Z,12.43
2022-11-09T22:42:13.458Z,12.75
2022-11-09T22:47:33.629Z,12.97
2022-11-09T22:53:00.882Z,12.95
2022-11-09T22:58:24.975Z,12.71
2022-11-09T23:03:45.315Z,12.43
2022-11-09T23:09:05.462Z,12.19
2022-11-09T23:14:25.644Z,11.99
2022-11-09T23:19:45.865Z,11.96
2022-11-09T23:25:06.810Z,11.73
2022-11-09T23:30:26.927Z,11.42
2022-11-09T23:35:47.034Z,11.06
2022-11-09T23:41:09.527Z,10.87
2022-11-09T23:46:29.510Z,10.86
2022-11-09T23:51:49.632Z,10.85
2022-11-09T23:57:09.777Z,10.98
